Time;durP1;ratioP1;P1;durP2;ratioP2;P2;SDS_P1;SDS_P2;PMS_P1;PMS_P2;Temp;Humidity;BMP_temperature;BMP_pressure;BME280_temperature;BME280_humidity;BME280_pressure;Samples;Min_cycle;Max_cycle;Signal;HPM_P1;HPM_P2
2023/04/25 00:02:22;;;;;;;1.35;0.93;;;17.00;52.90;;;;;;4979895;28;20201;-60
2023/04/25 00:04:52;;;;;;;3.83;1.20;;;17.00;52.90;;;;;;4965811;28;20642;-61
2023/04/25 00:07:23;;;;;;;2.35;1.17;;;17.10;53.00;;;;;;4974091;28;20643;-60
2023/04/25 00:09:55;;;;;;;2.47;1.15;;;17.10;53.00;;;;;;4973808;28;20827;-60
2023/04/25 00:12:28;;;;;;;1.73;1.13;;;17.10;53.00;;;;;;4974203;28;20202;-60
2023/04/25 00:14:59;;;;;;;1.52;1.08;;;17.20;53.10;;;;;;4973494;28;20683;-60
2023/04/25 00:17:31;;;;;;;1.50;1.00;;;17.20;53.10;;;;;;4958508;28;20593;-60
2023/04/25 00:20:04;;;;;;;1.88;1.05;;;17.30;53.10;;;;;;4961124;28;20198;-60
2023/04/25 00:22:37;;;;;;;2.80;1.10;;;17.30;53.10;;;;;;4974003;28;20233;-60
2023/04/25 00:25:10;;;;;;;1.60;0.93;;;17.30;53.10;;;;;;4973489;28;20572;-60
2023/04/25 00:27:41;;;;;;;2.08;1.17;;;17.30;53.10;;;;;;4973954;28;20253;-60
2023/04/25 00:30:13;;;;;;;2.45;0.90;;;17.40;53.10;;;;;;4973911;28;20198;-60
2023/04/25 00:32:43;;;;;;;2.38;0.88;;;17.40;53.10;;;;;;4983165;28;20870;-60
2023/04/25 00:35:14;;;;;;;2.10;0.90;;;17.50;53.10;;;;;;4984663;28;20655;-60
2023/04/25 00:37:51;;;;;;;1.40;1.00;;;17.50;53.10;;;;;;4973549;28;20233;-60
2023/04/25 00:40:24;;;;;;;1.52;1.00;;;17.60;53.20;;;;;;4970643;28;20662;-60
2023/04/25 00:42:55;;;;;;;2.00;1.00;;;17.60;53.10;;;;;;4973267;28;20221;-57
2023/04/25 00:45:31;;;;;;;2.10;1.30;;;17.60;53.10;;;;;;4973580;28;20194;-59
2023/04/25 00:48:02;;;;;;;2.22;1.00;;;17.70;53.30;;;;;;4978395;28;20254;-60
2023/04/25 00:50:32;;;;;;;2.65;1.02;;;17.70;54.00;;;;;;4973860;28;20194;-59
2023/04/25 00:53:04;;;;;;;2.05;1.20;;;17.70;53.30;;;;;;4973196;28;20202;-59
2023/04/25 00:55:37;;;;;;;2.10;1.25;;;17.80;54.00;;;;;;4973658;28;20674;-59
2023/04/25 00:58:07;;;;;;;2.15;1.10;;;17.80;53.50;;;;;;4971784;28;20221;-60
2023/04/25 01:00:38;;;;;;;2.17;1.10;;;17.90;53.50;;;;;;4972790;28;20198;-59
2023/04/25 01:03:09;;;;;;;1.63;0.93;;;17.90;53.50;;;;;;4985128;28;20201;-59
2023/04/25 01:05:40;;;;;;;2.33;1.40;;;17.90;53.60;;;;;;4981702;28;20281;-59
2023/04/25 01:08:11;;;;;;;1.92;1.33;;;18.00;53.60;;;;;;4987069;28;20236;-59
2023/04/25 01:10:43;;;;;;;1.92;1.13;;;18.10;53.50;;;;;;4982079;28;20190;-60
2023/04/25 01:13:14;;;;;;;1.15;0.93;;;18.10;53.50;;;;;;4972975;28;20198;-59
2023/04/25 01:15:45;;;;;;;2.28;1.10;;;18.10;53.60;;;;;;4972893;28;20689;-60
2023/04/25 01:18:16;;;;;;;1.63;1.15;;;18.20;53.60;;;;;;4972689;28;20250;-60
2023/04/25 01:20:48;;;;;;;2.22;1.27;;;18.30;53.70;;;;;;4972934;28;20201;-60
2023/04/25 01:23:22;;;;;;;1.48;1.20;;;18.30;53.50;;;;;;4972054;28;20272;-60
2023/04/25 01:25:53;;;;;;;1.85;1.27;;;18.30;53.50;;;;;;4971753;28;20217;-60
2023/04/25 01:28:24;;;;;;;1.25;1.02;;;18.40;53.50;;;;;;4983979;28;20220;-60
2023/04/25 01:30:55;;;;;;;1.63;1.02;;;18.50;53.50;;;;;;4979534;28;20598;-60
2023/04/25 01:33:26;;;;;;;1.83;1.00;;;18.50;53.50;;;;;;4988034;28;20206;-60
2023/04/25 01:35:57;;;;;;;1.73;1.05;;;18.50;53.40;;;;;;4973108;28;20202;-60
2023/04/25 01:38:29;;;;;;;1.52;1.00;;;18.60;53.40;;;;;;4953336;28;20678;-60
2023/04/25 01:41:00;;;;;;;2.65;1.30;;;18.60;53.30;;;;;;4965794;28;20666;-60
2023/04/25 01:43:31;;;;;;;3.25;1.10;;;18.60;53.30;;;;;;4983856;28;20201;-60
2023/04/25 01:46:02;;;;;;;1.27;0.98;;;18.70;53.30;;;;;;4979227;28;20729;-60
2023/04/25 01:48:33;;;;;;;1.58;1.30;;;18.70;53.20;;;;;;4971761;28;20213;-60
2023/04/25 01:51:04;;;;;;;1.88;1.02;;;18.80;53.20;;;;;;4971642;28;20681;-60
2023/04/25 01:53:36;;;;;;;1.77;1.25;;;18.80;53.10;;;;;;4960833;28;20206;-60
2023/04/25 01:56:08;;;;;;;2.72;1.40;;;18.80;53.00;;;;;;4964745;28;20256;-61
2023/04/25 01:58:38;;;;;;;2.63;1.30;;;18.90;53.00;;;;;;4971396;28;20610;-61
2023/04/25 02:01:09;;;;;;;1.85;1.00;;;18.90;52.90;;;;;;4972286;28;20780;-61
2023/04/25 02:03:40;;;;;;;1.10;1.00;;;19.00;53.00;;;;;;4989701;28;20206;-61
2023/04/25 02:06:10;;;;;;;1.38;0.90;;;19.00;52.90;;;;;;4978995;28;20198;-61
2023/04/25 02:08:43;;;;;;;1.25;0.90;;;19.00;52.80;;;;;;4972032;28;20205;-61
2023/04/25 02:11:14;;;;;;;1.17;1.00;;;19.00;52.70;;;;;;4972218;28;20198;-61
2023/04/25 02:13:44;;;;;;;1.17;0.80;;;19.10;52.80;;;;;;4972079;28;20201;-60
2023/04/25 02:16:15;;;;;;;3.13;0.90;;;19.20;52.70;;;;;;4972279;28;20194;-61
2023/04/25 02:18:45;;;;;;;2.35;1.20;;;19.20;52.70;;;;;;4971265;28;20198;-61
2023/04/25 02:21:16;;;;;;;0.70;0.70;;;19.20;52.60;;;;;;4971707;28;20198;-61
2023/04/25 02:23:49;;;;;;;1.08;0.95;;;19.30;52.70;;;;;;4971374;28;20232;-60
2023/04/25 02:26:20;;;;;;;0.98;0.90;;;19.30;52.60;;;;;;4972036;28;20218;-61
2023/04/25 02:28:51;;;;;;;1.17;0.90;;;19.30;52.50;;;;;;4971367;28;20285;-60
2023/04/25 02:31:22;;;;;;;1.25;0.90;;;19.30;52.50;;;;;;4971271;28;20198;-60
2023/04/25 02:33:52;;;;;;;2.00;0.70;;;19.40;52.50;;;;;;4955600;28;20198;-60
2023/04/25 02:36:23;;;;;;;1.45;0.90;;;19.40;52.40;;;;;;4965070;28;20226;-61
2023/04/25 02:38:56;;;;;;;1.08;0.85;;;19.40;52.30;;;;;;4991331;23;20225;-58
2023/04/25 02:41:27;;;;;;;1.42;0.90;;;19.50;52.30;;;;;;4991016;28;20194;-58
2023/04/25 02:43:57;;;;;;;1.38;0.80;;;19.50;52.30;;;;;;4991701;28;20200;-58
2023/04/25 02:46:28;;;;;;;1.13;0.98;;;19.50;52.20;;;;;;4990798;28;20685;-58
2023/04/25 02:48:58;;;;;;;1.33;0.80;;;19.60;52.20;;;;;;4993704;28;20198;-58
2023/04/25 02:51:30;;;;;;;1.67;0.90;;;19.60;52.10;;;;;;4990478;28;20230;-58
2023/04/25 02:54:06;;;;;;;0.93;0.85;;;19.70;52.10;;;;;;4991027;28;20193;-57
2023/04/25 02:56:37;;;;;;;2.95;0.80;;;19.70;52.10;;;;;;4990855;28;20220;-59
2023/04/25 02:59:07;;;;;;;1.10;0.77;;;19.80;52.10;;;;;;4991558;28;20208;-59
2023/04/25 03:01:38;;;;;;;1.15;0.77;;;19.80;52.10;;;;;;4992425;28;20713;-58
2023/04/25 03:04:09;;;;;;;1.25;0.85;;;19.90;52.00;;;;;;5008293;28;20558;-59
2023/04/25 03:06:39;;;;;;;2.38;0.90;;;19.90;52.00;;;;;;4997177;28;20236;-59
2023/04/25 03:09:12;;;;;;;0.88;0.80;;;19.90;52.00;;;;;;4990563;28;20198;-59
2023/04/25 03:11:42;;;;;;;1.23;0.80;;;20.00;52.10;;;;;;4990852;28;20201;-60
2023/04/25 03:14:13;;;;;;;1.10;0.90;;;20.00;52.10;;;;;;4990833;28;20202;-57
2023/04/25 03:16:44;;;;;;;1.83;0.90;;;20.10;52.00;;;;;;4990664;28;20899;-57
2023/04/25 03:19:15;;;;;;;1.55;1.25;;;20.10;52.00;;;;;;4990050;28;20657;-59
2023/04/25 03:21:46;;;;;;;0.90;0.80;;;20.10;52.00;;;;;;4990861;28;20229;-57
2023/04/25 03:24:19;;;;;;;2.28;0.80;;;20.10;52.00;;;;;;4990836;28;20201;-59
2023/04/25 03:26:49;;;;;;;1.45;0.90;;;20.20;51.90;;;;;;4988784;28;20226;-56
2023/04/25 03:29:24;;;;;;;0.98;0.82;;;20.20;51.90;;;;;;4991801;28;20665;-60
2023/04/25 03:31:54;;;;;;;1.95;0.90;;;20.30;52.00;;;;;;4997153;28;20851;-60
2023/04/25 03:34:25;;;;;;;1.10;1.00;;;20.30;51.90;;;;;;4991618;28;20782;-60
2023/04/25 03:36:56;;;;;;;1.20;0.80;;;20.40;51.90;;;;;;4993487;28;20213;-58
2023/04/25 03:39:28;;;;;;;1.00;0.70;;;20.40;51.90;;;;;;5005477;23;20728;-60
2023/04/25 03:41:59;;;;;;;1.17;0.85;;;20.40;51.80;;;;;;5007023;28;20202;-60
2023/04/25 03:44:30;;;;;;;1.52;0.80;;;20.50;51.80;;;;;;5000411;28;20278;-60
2023/04/25 03:47:01;;;;;;;2.13;1.00;;;20.50;51.80;;;;;;4992355;28;20226;-61
2023/04/25 03:49:31;;;;;;;1.05;0.82;;;20.50;51.70;;;;;;4994386;28;20650;-60
2023/04/25 03:52:02;;;;;;;0.95;0.70;;;20.50;51.60;;;;;;4994285;28;20195;-60
2023/04/25 03:54:34;;;;;;;0.70;0.63;;;20.60;51.70;;;;;;4973313;28;20205;-60
2023/04/25 03:57:05;;;;;;;0.95;0.70;;;20.60;51.50;;;;;;4988215;28;20213;-60
2023/04/25 03:59:36;;;;;;;1.38;1.05;;;20.60;51.50;;;;;;4993349;28;20201;-60
2023/04/25 04:02:06;;;;;;;1.63;0.90;;;20.60;51.50;;;;;;4998650;28;20200;-60
2023/04/25 04:04:37;;;;;;;2.03;0.90;;;20.70;51.50;;;;;;5013140;28;20192;-61
2023/04/25 04:07:08;;;;;;;0.80;0.70;;;20.70;51.50;;;;;;4999671;28;20225;-61
2023/04/25 04:09:40;;;;;;;1.30;0.80;;;20.70;51.40;;;;;;4993700;28;20197;-59
2023/04/25 04:12:11;;;;;;;1.73;0.90;;;20.80;51.40;;;;;;4993927;28;20197;-59
2023/04/25 04:14:42;;;;;;;1.05;0.70;;;20.80;51.30;;;;;;4993462;28;20201;-61
2023/04/25 04:17:12;;;;;;;1.40;0.85;;;20.80;51.30;;;;;;5006427;28;20217;-60
2023/04/25 04:19:43;;;;;;;1.45;0.75;;;20.80;51.20;;;;;;5013459;28;20580;-60
2023/04/25 04:22:14;;;;;;;1.40;0.80;;;20.90;51.20;;;;;;5012021;28;20192;-60
2023/04/25 04:24:47;;;;;;;0.82;0.73;;;20.90;51.20;;;;;;5013149;28;20608;-60
2023/04/25 04:27:17;;;;;;;1.17;0.70;;;20.90;51.20;;;;;;5012599;28;20693;-60
2023/04/25 04:29:48;;;;;;;1.00;0.90;;;20.90;51.10;;;;;;5012271;28;20219;-60
2023/04/25 04:32:19;;;;;;;1.35;0.80;;;20.90;51.00;;;;;;5012154;28;20197;-60
2023/04/25 04:34:50;;;;;;;0.95;0.82;;;20.90;51.00;;;;;;5013521;28;20197;-60
2023/04/25 04:37:20;;;;;;;0.55;0.55;;;21.00;50.90;;;;;;4990484;28;20213;-60
2023/04/25 04:39:53;;;;;;;1.60;0.85;;;21.00;50.80;;;;;;4993882;28;20209;-59
2023/04/25 04:42:25;;;;;;;0.98;0.63;;;21.00;50.70;;;;;;4992131;28;20233;-60
2023/04/25 04:44:56;;;;;;;0.73;0.70;;;21.00;50.60;;;;;;4992656;28;20233;-60
2023/04/25 04:47:30;;;;;;;0.73;0.73;;;21.00;50.50;;;;;;4993033;28;20653;-60
2023/04/25 04:50:01;;;;;;;1.10;0.75;;;21.10;51.10;;;;;;4992373;28;20295;-60
2023/04/25 04:52:31;;;;;;;1.83;0.77;;;21.10;50.50;;;;;;4992250;28;20198;-60
2023/04/25 04:55:04;;;;;;;0.60;0.60;;;21.10;50.40;;;;;;4992820;28;20193;-60
2023/04/25 04:57:35;;;;;;;1.45;0.82;;;21.10;50.40;;;;;;4992594;28;20213;-60
2023/04/25 05:00:10;;;;;;;1.23;0.75;;;21.10;50.30;;;;;;4992510;28;20661;-61
2023/04/25 05:02:41;;;;;;;1.65;0.90;;;21.10;50.20;;;;;;4997692;28;20197;-61
2023/04/25 05:05:12;;;;;;;0.70;0.70;;;21.10;50.20;;;;;;4992320;28;20202;-61
2023/04/25 05:07:43;;;;;;;1.40;1.00;;;21.20;50.20;;;;;;5007567;28;20759;-61
2023/04/25 05:10:15;;;;;;;1.52;0.80;;;21.20;50.20;;;;;;5011770;28;20395;-61
2023/04/25 05:12:46;;;;;;;1.10;0.80;;;21.10;50.00;;;;;;5012090;28;20692;-61
2023/04/25 05:15:17;;;;;;;1.02;0.80;;;21.20;50.10;;;;;;5012090;28;20232;-60
2023/04/25 05:17:47;;;;;;;1.02;0.93;;;21.20;50.00;;;;;;5011396;28;20243;-61
2023/04/25 05:20:18;;;;;;;1.33;0.73;;;21.20;50.00;;;;;;5011691;28;20204;-61
2023/04/25 05:22:49;;;;;;;0.90;0.77;;;21.20;50.00;;;;;;5011933;28;20196;-61
2023/04/25 05:25:22;;;;;;;2.17;0.73;;;21.20;50.00;;;;;;5012042;28;20207;-61
2023/04/25 05:27:53;;;;;;;1.98;1.08;;;21.20;49.90;;;;;;5011517;28;20231;-61
2023/04/25 05:30:23;;;;;;;1.95;1.00;;;21.20;49.90;;;;;;5012025;28;20228;-61
2023/04/25 05:32:54;;;;;;;1.65;0.90;;;21.20;49.90;;;;;;5011372;28;20192;-61
2023/04/25 05:35:25;;;;;;;1.05;0.70;;;21.20;50.00;;;;;;5011792;28;20197;-61
2023/04/25 05:37:55;;;;;;;1.77;1.17;;;21.20;50.00;;;;;;4996349;28;20229;-61
2023/04/25 05:40:28;;;;;;;1.80;1.00;;;21.20;50.00;;;;;;4990082;28;20541;-61
2023/04/25 05:42:58;;;;;;;5.35;1.23;;;21.20;50.00;;;;;;4996033;28;20198;-61
2023/04/25 05:45:29;;;;;;;1.33;1.00;;;21.20;50.00;;;;;;4972347;28;20688;-61
2023/04/25 05:48:00;;;;;;;0.90;0.90;;;21.20;49.90;;;;;;4996144;28;20225;-59
2023/04/25 05:50:30;;;;;;;1.05;0.95;;;21.20;49.90;;;;;;4991153;28;20650;-60
2023/04/25 05:53:01;;;;;;;1.13;0.90;;;21.20;49.90;;;;;;4991168;28;20198;-61
2023/04/25 05:55:33;;;;;;;1.00;0.90;;;21.20;49.90;;;;;;4991963;28;20299;-61
2023/04/25 05:58:04;;;;;;;0.90;0.70;;;21.20;49.70;;;;;;4992025;28;20244;-61
2023/04/25 06:00:35;;;;;;;1.08;0.80;;;21.20;49.60;;;;;;4991434;28;20204;-60
2023/04/25 06:03:07;;;;;;;1.33;0.80;;;21.20;49.30;;;;;;5005566;28;20231;-61
2023/04/25 06:05:38;;;;;;;1.60;0.88;;;21.20;49.30;;;;;;5011635;28;20203;-61
2023/04/25 06:08:08;;;;;;;0.98;0.88;;;21.10;49.30;;;;;;4995961;28;20238;-60
2023/04/25 06:10:41;;;;;;;1.30;1.00;;;21.20;49.30;;;;;;4991921;28;20202;-61
2023/04/25 06:13:12;;;;;;;1.38;1.10;;;21.10;49.10;;;;;;4991694;28;20197;-60
2023/04/25 06:15:42;;;;;;;1.10;1.00;;;21.10;49.10;;;;;;4991486;28;20209;-54
2023/04/25 06:18:13;;;;;;;1.52;1.05;;;21.10;49.00;;;;;;4991413;28;20721;-61
2023/04/25 06:20:44;;;;;;;1.10;1.00;;;21.10;48.40;;;;;;4991962;28;20204;-61
2023/04/25 06:23:14;;;;;;;1.15;1.00;;;21.10;48.10;;;;;;4990801;28;20615;-60
2023/04/25 06:25:47;;;;;;;1.25;1.15;;;21.10;47.80;;;;;;4985430;28;20195;-61
2023/04/25 06:28:18;;;;;;;1.77;1.20;;;21.00;47.60;;;;;;4981827;28;20678;-61
2023/04/25 06:30:48;;;;;;;1.90;1.20;;;21.00;47.90;;;;;;4980402;28;20194;-61
2023/04/25 06:33:19;;;;;;;3.90;1.40;;;21.00;48.00;;;;;;4985212;28;20202;-61
2023/04/25 06:35:50;;;;;;;1.80;1.42;;;21.00;48.00;;;;;;4979804;28;20201;-61
2023/04/25 06:38:21;;;;;;;2.63;1.20;;;21.00;48.00;;;;;;4982228;28;20217;-61
2023/04/25 06:40:53;;;;;;;1.20;1.02;;;21.00;48.00;;;;;;4979983;28;20249;-61
2023/04/25 06:43:24;;;;;;;1.45;1.13;;;21.00;48.10;;;;;;4980405;28;20189;-61
2023/04/25 06:45:55;;;;;;;1.80;1.23;;;21.00;48.00;;;;;;4980712;28;20262;-62
2023/04/25 06:48:25;;;;;;;2.55;1.20;;;21.00;48.00;;;;;;4980207;28;20221;-62
2023/04/25 06:50:56;;;;;;;1.50;1.13;;;20.90;47.90;;;;;;4980638;28;20201;-62
2023/04/25 06:53:27;;;;;;;2.33;1.45;;;21.00;47.90;;;;;;4986263;28;20635;-62
2023/04/25 06:55:59;;;;;;;8.90;4.10;;;20.90;47.70;;;;;;4980598;28;20201;-62
2023/04/25 06:58:30;;;;;;;12.80;6.13;;;20.90;47.60;;;;;;4985854;28;20200;-62
2023/04/25 07:01:00;;;;;;;20.90;12.85;;;20.90;47.60;;;;;;4991047;28;20659;-61
2023/04/25 07:03:32;;;;;;;46.47;21.45;;;20.90;47.60;;;;;;4992420;28;20197;-62
2023/04/25 07:06:03;;;;;;;64.57;31.17;;;20.90;47.60;;;;;;4994745;28;20197;-61
2023/04/25 07:08:33;;;;;;;70.15;33.65;;;20.90;47.60;;;;;;4993762;28;20224;-61
2023/04/25 07:11:06;;;;;;;90.97;42.70;;;20.90;47.50;;;;;;4994681;28;20198;-62
2023/04/25 07:13:37;;;;;;;98.53;44.00;;;20.90;47.60;;;;;;5009358;28;20246;-61
2023/04/25 07:16:08;;;;;;;89.97;43.55;;;20.90;47.70;;;;;;5014472;28;20228;-61
2023/04/25 07:18:38;;;;;;;96.93;48.22;;;20.80;47.70;;;;;;5013426;28;20193;-61
2023/04/25 07:21:09;;;;;;;113.95;50.60;;;20.90;47.90;;;;;;5014592;28;20197;-62
2023/04/25 07:23:40;;;;;;;108.40;52.85;;;20.80;47.80;;;;;;5013755;28;20267;-61
2023/04/25 07:26:13;;;;;;;107.13;54.25;;;20.90;47.90;;;;;;5007703;28;20201;-61
2023/04/25 07:28:43;;;;;;;107.03;52.63;;;20.80;47.90;;;;;;4985646;28;20221;-61
2023/04/25 07:31:14;;;;;;;116.30;59.08;;;20.80;47.90;;;;;;4985381;28;20603;-62
2023/04/25 07:33:44;;;;;;;123.45;58.63;;;20.80;47.70;;;;;;4985463;28;20194;-62
2023/04/25 07:36:15;;;;;;;130.32;58.80;;;20.80;47.50;;;;;;4982864;28;20643;-62
2023/04/25 07:38:45;;;;;;;119.82;58.40;;;20.80;47.50;;;;;;4983473;28;20201;-61
2023/04/25 07:43:56;;;;;;;122.93;59.97;;;20.80;47.40;;;;;;5003305;28;20216;-58
2023/04/25 07:46:26;;;;;;;120.00;57.38;;;20.80;47.40;;;;;;5002870;28;20288;-58
2023/04/25 07:48:57;;;;;;;117.60;56.97;;;20.80;47.40;;;;;;4994560;28;20225;-58
2023/04/25 07:51:28;;;;;;;111.45;57.75;;;20.80;47.40;;;;;;5008357;28;20193;-59
2023/04/25 07:53:59;;;;;;;121.05;59.20;;;20.80;47.40;;;;;;5013612;28;20209;-59
2023/04/25 07:56:30;;;;;;;105.93;56.20;;;20.80;47.50;;;;;;5010871;28;20210;-59
2023/04/25 07:59:02;;;;;;;110.25;57.28;;;20.70;47.60;;;;;;5001675;28;20190;-59
2023/04/25 08:01:33;;;;;;;104.72;57.08;;;20.80;47.70;;;;;;5003455;28;20688;-59
2023/04/25 08:04:03;;;;;;;107.60;54.80;;;20.70;47.70;;;;;;5002575;28;20268;-59
2023/04/25 08:06:34;;;;;;;104.25;52.42;;;20.70;47.70;;;;;;5002329;28;20215;-59
2023/04/25 08:09:05;;;;;;;105.10;52.42;;;20.70;47.80;;;;;;5001292;28;20582;-59
2023/04/25 08:11:36;;;;;;;108.50;52.15;;;20.70;47.80;;;;;;5002210;28;20191;-59
2023/04/25 08:14:09;;;;;;;95.53;50.67;;;20.70;47.80;;;;;;5002942;28;20697;-59
2023/04/25 08:16:39;;;;;;;101.32;51.05;;;20.70;47.50;;;;;;5001398;28;20809;-59
2023/04/25 08:19:10;;;;;;;98.05;50.35;;;20.70;47.40;;;;;;5003010;28;20711;-59
2023/04/25 08:21:40;;;;;;;97.13;47.85;;;20.70;47.40;;;;;;5004534;28;20263;-59
2023/04/25 08:24:11;;;;;;;90.75;47.55;;;20.70;47.40;;;;;;5012800;28;20711;-59
2023/04/25 08:26:41;;;;;;;92.32;46.78;;;20.70;47.40;;;;;;5013110;28;20244;-59
2023/04/25 08:29:14;;;;;;;90.40;46.22;;;20.70;47.40;;;;;;5013410;28;20263;-59
2023/04/25 08:31:44;;;;;;;83.75;44.20;;;20.60;47.30;;;;;;5015032;28;20197;-59
2023/04/25 08:34:15;;;;;;;87.32;44.78;;;20.60;47.20;;;;;;5028160;28;20196;-58
2023/04/25 08:36:45;;;;;;;82.68;44.15;;;20.60;47.40;;;;;;5011099;28;20282;-59
2023/04/25 08:39:16;;;;;;;68.10;35.42;;;20.60;47.50;;;;;;5013135;28;20193;-58
2023/04/25 08:41:47;;;;;;;71.88;37.88;;;20.60;47.50;;;;;;5013574;28;20429;-55
2023/04/25 08:44:21;;;;;;;14.50;8.65;;;20.60;47.60;;;;;;5013378;28;20251;-54
2023/04/25 08:46:54;;;;;;;27.35;13.30;;;20.60;46.80;;;;;;5012663;28;20798;-59
2023/04/25 08:49:25;;;;;;;7.43;4.03;;;20.60;46.30;;;;;;5012773;28;20228;-59
2023/04/25 08:51:59;;;;;;;12.55;7.55;;;20.50;46.20;;;;;;5012730;28;20193;-57
2023/04/25 08:54:31;;;;;;;26.00;14.18;;;20.50;46.30;;;;;;5012345;28;20712;-57
2023/04/25 08:57:03;;;;;;;25.00;15.10;;;20.40;46.60;;;;;;5011644;28;20302;-54
2023/04/25 08:59:37;;;;;;;23.60;14.82;;;20.40;46.80;;;;;;5005746;28;20201;-58
2023/04/25 09:02:08;;;;;;;27.98;16.02;;;20.50;47.10;;;;;;5000400;28;20239;-58
2023/04/25 09:04:39;;;;;;;25.60;15.00;;;20.50;47.20;;;;;;4999905;28;20194;-58
2023/04/25 09:07:10;;;;;;;25.77;14.50;;;20.40;47.30;;;;;;5003071;28;20213;-58
2023/04/25 09:09:41;;;;;;;23.17;13.90;;;20.40;47.30;;;;;;5001021;28;20291;-59
2023/04/25 09:12:12;;;;;;;22.35;12.85;;;20.40;47.30;;;;;;4996747;28;20194;-59
2023/04/25 09:14:45;;;;;;;23.17;13.43;;;20.40;47.40;;;;;;5001824;28;20715;-58
2023/04/25 09:17:15;;;;;;;21.75;12.77;;;20.40;47.40;;;;;;5006138;28;20217;-58
2023/04/25 09:19:51;;;;;;;22.98;14.00;;;20.40;47.40;;;;;;5001923;28;20239;-58
2023/04/25 09:22:22;;;;;;;19.65;11.98;;;20.40;47.40;;;;;;5011560;28;20608;-59
2023/04/25 09:24:53;;;;;;;20.75;12.57;;;20.40;47.50;;;;;;5011415;28;20566;-58
2023/04/25 09:27:26;;;;;;;18.33;11.18;;;20.40;47.60;;;;;;5009798;28;20676;-58
2023/04/25 09:30:02;;;;;;;19.25;11.05;;;20.40;47.50;;;;;;5011189;28;20221;-58
2023/04/25 09:32:33;;;;;;;19.15;11.02;;;20.40;47.50;;;;;;5019740;28;20659;-58
2023/04/25 09:35:04;;;;;;;17.90;10.63;;;20.50;47.70;;;;;;5019260;28;20197;-58
2023/04/25 09:37:35;;;;;;;17.88;10.40;;;20.40;47.70;;;;;;5010432;28;20220;-58
2023/04/25 09:40:10;;;;;;;18.23;11.43;;;20.40;47.70;;;;;;5010722;28;20201;-57
2023/04/25 09:42:45;;;;;;;17.98;9.95;;;20.40;47.70;;;;;;4989565;28;20205;-58
2023/04/25 09:45:18;;;;;;;21.77;10.30;;;20.40;47.60;;;;;;5009175;28;20196;-57
2023/04/25 09:47:50;;;;;;;20.95;10.90;;;20.40;47.70;;;;;;5010643;28;20225;-58
2023/04/25 09:50:24;;;;;;;20.45;10.40;;;20.40;47.60;;;;;;5008788;28;20217;-58
2023/04/25 09:53:07;;;;;;;16.58;9.98;;;20.40;47.60;;;;;;5010908;28;20192;-58
2023/04/25 09:55:38;;;;;;;17.02;10.35;;;20.30;47.60;;;;;;5010272;28;20207;-57
2023/04/25 09:58:10;;;;;;;19.95;9.98;;;20.30;47.70;;;;;;5010399;28;20221;-58
2023/04/25 10:00:43;;;;;;;20.05;10.15;;;20.30;47.70;;;;;;5010026;28;20712;-58
2023/04/25 10:03:14;;;;;;;17.98;9.30;;;20.40;47.90;;;;;;5025066;28;20200;-58
2023/04/25 10:05:45;;;;;;;18.73;10.35;;;20.40;47.90;;;;;;5014220;28;20263;-58
2023/04/25 10:08:16;;;;;;;15.13;9.23;;;20.40;47.90;;;;;;5010083;28;20751;-58
2023/04/25 10:10:47;;;;;;;19.00;9.32;;;20.30;47.90;;;;;;5010140;28;20725;-58
2023/04/25 10:13:18;;;;;;;16.77;9.15;;;20.30;47.90;;;;;;5009450;28;20208;-58
2023/04/25 10:15:52;;;;;;;16.88;9.20;;;20.30;47.90;;;;;;5009853;28;20197;-58
2023/04/25 10:18:23;;;;;;;18.10;9.88;;;20.30;47.90;;;;;;5009828;28;20216;-58
2023/04/25 10:20:55;;;;;;;16.02;9.05;;;20.30;47.90;;;;;;5009699;28;20243;-57
2023/04/25 10:23:26;;;;;;;16.25;8.15;;;20.30;47.90;;;;;;5010281;28;20255;-58
2023/04/25 10:25:57;;;;;;;17.70;8.60;;;20.30;47.90;;;;;;5010533;28;20251;-58
2023/04/25 10:28:28;;;;;;;15.52;7.88;;;20.30;47.90;;;;;;5010098;28;20204;-57
2023/04/25 10:31:05;;;;;;;14.98;8.40;;;20.30;47.90;;;;;;5010041;28;20693;-58
2023/04/25 10:33:39;;;;;;;16.65;8.45;;;20.30;47.90;;;;;;5009354;28;20700;-58
2023/04/25 10:36:16;;;;;;;16.70;8.32;;;20.30;47.90;;;;;;5009314;28;20205;-58
2023/04/25 10:38:48;;;;;;;18.20;8.48;;;20.20;47.90;;;;;;5009189;28;20206;-58
2023/04/25 10:41:30;;;;;;;;;;;;;;;;;;;;;
2023/04/25 10:44:07;;;;;;;14.63;7.63;;;20.20;48.00;;;;;;5006397;28;20219;-55
2023/04/25 10:46:39;;;;;;;15.23;7.55;;;20.20;48.00;;;;;;4989886;28;20214;-57
2023/04/25 10:49:12;;;;;;;13.38;7.53;;;20.20;48.10;;;;;;4991219;28;20229;-57
2023/04/25 10:51:42;;;;;;;14.68;7.88;;;20.20;48.10;;;;;;5009960;28;20716;-57
2023/04/25 10:54:14;;;;;;;12.73;7.28;;;20.20;48.20;;;;;;5009636;28;20197;-56
2023/04/25 10:56:45;;;;;;;16.13;7.95;;;20.20;48.20;;;;;;5008955;28;20616;-54
2023/04/25 10:59:17;;;;;;;14.38;7.53;;;20.20;48.20;;;;;;5010560;28;20212;-57
2023/04/25 11:01:50;;;;;;;14.25;7.25;;;20.20;48.20;;;;;;5012482;28;20193;-57
2023/04/25 11:04:25;;;;;;;15.57;7.60;;;20.20;48.10;;;;;;5028500;28;20250;-58
2023/04/25 11:07:07;;;;;;;14.50;7.25;;;20.20;48.20;;;;;;5009822;28;20282;-56
2023/04/25 11:09:40;;;;;;;14.95;6.38;;;20.20;48.20;;;;;;5009594;28;20282;-55
2023/04/25 11:12:12;;;;;;;14.25;7.25;;;20.20;48.10;;;;;;5009059;28;20200;-57
2023/04/25 11:14:43;;;;;;;11.30;6.78;;;20.10;48.10;;;;;;5009173;28;20255;-56
2023/04/25 11:17:16;;;;;;;10.57;6.32;;;20.10;48.10;;;;;;5008952;28;20602;-58
2023/04/25 11:19:50;;;;;;;10.57;6.43;;;20.10;48.10;;;;;;5009182;28;20201;-51
2023/04/25 11:22:23;;;;;;;11.05;6.55;;;20.10;48.20;;;;;;5009932;28;20325;-55
2023/04/25 11:24:54;;;;;;;12.48;6.57;;;20.10;48.20;;;;;;5009040;28;20204;-56
2023/04/25 11:27:25;;;;;;;11.10;6.20;;;20.10;48.30;;;;;;5000376;28;20279;-59
2023/04/25 11:29:56;;;;;;;9.75;5.90;;;20.10;48.90;;;;;;4999477;28;20304;-57
2023/04/25 11:32:29;;;;;;;12.82;6.32;;;20.10;48.40;;;;;;5005183;28;20193;-55
2023/04/25 11:35:00;;;;;;;9.73;5.97;;;20.10;48.40;;;;;;5000169;28;20672;-58
2023/04/25 11:37:31;;;;;;;9.77;6.00;;;20.10;48.40;;;;;;5000960;28;20208;-54
2023/04/25 11:40:02;;;;;;;9.48;5.55;;;20.10;48.40;;;;;;4999874;28;20204;-56
2023/04/25 11:42:33;;;;;;;9.27;5.47;;;20.10;48.40;;;;;;5006869;22;20235;-59
2023/04/25 11:45:03;;;;;;;11.70;5.68;;;20.10;48.40;;;;;;4981032;28;20202;-58
2023/04/25 11:47:37;;;;;;;10.18;5.93;;;20.10;48.40;;;;;;4969186;28;20213;-58
2023/04/25 11:50:09;;;;;;;10.63;5.97;;;20.10;48.40;;;;;;4971067;28;20218;-59
2023/04/25 11:52:41;;;;;;;11.05;6.00;;;20.00;48.40;;;;;;4973940;28;20285;-59
2023/04/25 11:55:15;;;;;;;9.50;5.57;;;20.00;48.40;;;;;;4973870;28;20202;-58
2023/04/25 11:57:46;;;;;;;11.15;5.95;;;20.00;48.40;;;;;;4973839;28;20575;-58
2023/04/25 12:00:18;;;;;;;9.95;6.28;;;20.00;48.40;;;;;;4974235;28;20564;-59
2023/04/25 12:02:54;;;;;;;8.60;5.20;;;20.00;48.50;;;;;;4973788;28;20222;-59
2023/04/25 12:05:28;;;;;;;12.05;5.93;;;20.00;48.50;;;;;;4973397;28;20198;-59
2023/04/25 12:07:59;;;;;;;8.93;5.25;;;20.00;48.60;;;;;;4973913;28;20553;-59
2023/04/25 12:10:30;;;;;;;7.78;5.05;;;20.00;48.60;;;;;;4973316;28;20305;-59
2023/04/25 12:13:00;;;;;;;7.70;5.05;;;20.00;48.60;;;;;;4973261;28;20199;-59
2023/04/25 12:15:31;;;;;;;11.70;5.60;;;20.00;48.70;;;;;;4973300;28;20190;-59
2023/04/25 12:18:06;;;;;;;9.52;4.63;;;20.00;48.70;;;;;;4973018;28;20221;-58
2023/04/25 12:20:37;;;;;;;9.00;4.90;;;20.00;48.70;;;;;;4969321;28;20297;-59
2023/04/25 12:23:11;;;;;;;9.55;5.50;;;20.00;48.70;;;;;;4973255;28;20194;-59
2023/04/25 12:25:43;;;;;;;11.60;5.90;;;19.90;48.70;;;;;;4973717;28;20277;-59
2023/04/25 12:28:15;;;;;;;10.40;5.47;;;19.90;48.60;;;;;;4969436;28;20734;-59
2023/04/25 12:31:02;;;;;;;10.38;5.55;;;19.90;48.60;;;;;;4973153;28;20318;-59
2023/04/25 12:33:36;;;;;;;8.20;5.03;;;19.90;48.70;;;;;;4959571;28;20199;-58
2023/04/25 12:36:10;;;;;;;7.55;5.10;;;19.90;48.70;;;;;;4955311;28;20206;-59
2023/04/25 12:38:42;;;;;;;8.82;5.30;;;19.90;48.70;;;;;;4954972;28;20194;-57
2023/04/25 12:41:13;;;;;;;9.95;5.70;;;19.80;48.60;;;;;;4954553;28;20206;-58
2023/04/25 12:43:43;;;;;;;9.15;5.30;;;19.80;48.70;;;;;;4938549;29;20668;-58
2023/04/25 12:46:14;;;;;;;9.15;4.50;;;19.80;48.70;;;;;;4935413;29;20572;-58
2023/04/25 12:48:47;;;;;;;7.88;4.68;;;19.80;48.80;;;;;;4935851;29;20226;-59
2023/04/25 12:51:17;;;;;;;7.97;4.75;;;19.80;48.80;;;;;;4936013;29;20239;-59
2023/04/25 12:53:48;;;;;;;8.77;4.57;;;19.80;48.90;;;;;;4935562;29;20203;-58
2023/04/25 12:56:18;;;;;;;8.20;4.70;;;19.80;48.90;;;;;;4935530;29;20278;-58
2023/04/25 12:58:50;;;;;;;7.07;4.75;;;19.80;48.90;;;;;;4938236;29;20225;-59
2023/04/25 13:01:20;;;;;;;6.95;4.13;;;19.80;49.00;;;;;;4953909;28;20281;-59
2023/04/25 13:03:53;;;;;;;7.75;4.75;;;19.80;48.90;;;;;;4973038;28;20202;-58
2023/04/25 13:06:24;;;;;;;8.35;4.90;;;19.80;48.90;;;;;;4973939;28;20578;-59